Time;durP1;ratioP1;P1;durP2;ratioP2;P2;SDS_P1;SDS_P2;PMS_P1;PMS_P2;Temp;Humidity;BMP_temperature;BMP_pressure;BME280_temperature;BME280_humidity;BME280_pressure;Samples;Min_cycle;Max_cycle;Signal;HPM_P1;HPM_P2
2023/09/28 00:00:46;;;;;;;17.70;14.73;;;17.70;99.90;;;;;;6216481;23;20437;-84
2023/09/28 00:02:47;;;;;;;18.65;15.93;;;17.70;99.90;;;;;;6200259;23;20075;-84
2023/09/28 00:05:14;;;;;;;18.98;17.38;;;17.70;99.90;;;;;;6190986;23;20009;-83
2023/09/28 00:07:40;;;;;;;19.45;17.85;;;17.70;99.90;;;;;;6215694;23;20031;-84
2023/09/28 00:10:09;;;;;;;16.38;14.93;;;17.70;99.90;;;;;;6216349;23;20023;-83
2023/09/28 00:12:35;;;;;;;18.58;16.73;;;17.60;99.90;;;;;;6191323;23;20039;-84
2023/09/28 00:15:00;;;;;;;19.23;17.73;;;17.60;99.90;;;;;;6215847;23;20024;-83
2023/09/28 00:17:26;;;;;;;20.25;18.60;;;17.60;99.90;;;;;;6216028;23;20470;-84
2023/09/28 00:19:52;;;;;;;18.75;16.33;;;17.60;99.90;;;;;;6215695;23;20466;-84
2023/09/28 00:22:18;;;;;;;17.15;15.82;;;17.60;99.90;;;;;;6215003;23;20013;-84
2023/09/28 00:24:43;;;;;;;16.98;15.23;;;17.50;99.90;;;;;;6216628;23;20521;-84
2023/09/28 00:27:09;;;;;;;18.02;16.48;;;17.50;99.90;;;;;;6191442;23;20091;-83
2023/09/28 00:29:35;;;;;;;17.05;15.60;;;17.50;99.90;;;;;;6216069;23;20016;-84
2023/09/28 00:32:00;;;;;;;17.00;15.63;;;17.50;99.90;;;;;;6216512;23;20016;-84
2023/09/28 00:34:26;;;;;;;19.77;18.17;;;17.50;99.90;;;;;;6191102;23;20442;-84
2023/09/28 00:36:52;;;;;;;18.83;17.23;;;17.50;99.90;;;;;;6214917;23;20087;-84
2023/09/28 00:39:18;;;;;;;18.33;16.52;;;17.50;99.90;;;;;;6216039;23;20027;-84
2023/09/28 00:41:45;;;;;;;20.77;19.08;;;17.50;99.90;;;;;;6216067;23;20070;-84
2023/09/28 00:44:11;;;;;;;16.48;14.98;;;17.50;99.90;;;;;;6216154;23;20012;-83
2023/09/28 00:46:38;;;;;;;19.17;17.27;;;17.50;99.90;;;;;;6216163;23;20497;-84
2023/09/28 00:49:05;;;;;;;21.27;19.70;;;17.50;99.90;;;;;;6216225;23;20012;-84
2023/09/28 00:51:33;;;;;;;19.52;17.73;;;17.40;99.90;;;;;;6215614;23;20012;-83
2023/09/28 00:54:03;;;;;;;19.48;17.70;;;17.50;99.90;;;;;;6215911;23;20461;-84
2023/09/28 00:56:30;;;;;;;20.13;18.42;;;17.50;99.90;;;;;;6215427;23;20012;-83
2023/09/28 00:58:56;;;;;;;20.48;18.50;;;17.40;99.90;;;;;;6241103;23;20083;-84
2023/09/28 01:01:27;;;;;;;17.13;15.35;;;17.50;99.90;;;;;;6191096;23;20016;-84
2023/09/28 01:03:55;;;;;;;19.00;17.30;;;17.40;99.90;;;;;;6215426;23;20085;-84
2023/09/28 01:06:21;;;;;;;19.23;17.52;;;17.50;99.90;;;;;;6190105;23;20019;-83
2023/09/28 01:08:47;;;;;;;15.88;14.60;;;17.50;99.90;;;;;;6215802;23;20008;-84
2023/09/28 01:11:12;;;;;;;19.83;18.13;;;17.40;99.90;;;;;;6190759;23;20039;-84
2023/09/28 01:13:39;;;;;;;17.08;15.57;;;17.40;99.90;;;;;;6240794;23;20020;-84
2023/09/28 01:16:05;;;;;;;19.30;17.60;;;17.50;99.90;;;;;;6210541;23;20009;-84
2023/09/28 01:18:31;;;;;;;17.98;16.42;;;17.40;99.90;;;;;;6210870;23;20013;-84
2023/09/28 01:20:58;;;;;;;18.13;16.63;;;17.40;99.90;;;;;;6185071;23;20317;-84
2023/09/28 01:23:23;;;;;;;18.77;17.27;;;17.40;99.90;;;;;;6212082;23;20518;-84
2023/09/28 01:25:50;;;;;;;18.08;16.58;;;17.40;99.90;;;;;;6210191;23;20055;-84
2023/09/28 01:28:19;;;;;;;19.58;17.98;;;17.40;99.90;;;;;;6185394;23;20013;-84
2023/09/28 01:30:46;;;;;;;18.02;16.33;;;17.40;99.90;;;;;;6185363;23;20012;-84
2023/09/28 01:33:12;;;;;;;17.65;16.25;;;17.40;99.90;;;;;;6210373;23;20024;-84
2023/09/28 01:35:38;;;;;;;16.55;14.93;;;17.40;99.90;;;;;;6184654;23;20068;-84
2023/09/28 01:38:10;;;;;;;18.80;17.13;;;17.40;99.90;;;;;;6210152;23;20023;-84
2023/09/28 01:40:36;;;;;;;17.67;16.17;;;17.40;99.90;;;;;;6211274;23;20020;-84
2023/09/28 01:43:02;;;;;;;18.50;17.00;;;17.20;99.90;;;;;;6210287;23;20040;-83
2023/09/28 01:45:28;;;;;;;18.58;16.75;;;17.40;99.90;;;;;;6210403;23;20005;-83
2023/09/28 01:47:54;;;;;;;20.17;18.30;;;17.30;99.90;;;;;;6235581;23;20020;-84
2023/09/28 01:50:20;;;;;;;17.38;15.57;;;17.30;99.90;;;;;;6209475;23;20020;-84
2023/09/28 01:52:46;;;;;;;16.90;15.40;;;17.30;99.90;;;;;;6210275;23;20387;-83
2023/09/28 01:55:12;;;;;;;16.98;15.55;;;17.30;99.90;;;;;;6210158;23;20447;-84
2023/09/28 01:57:37;;;;;;;18.75;17.05;;;17.20;99.90;;;;;;6210472;23;20067;-83
2023/09/28 02:00:14;;;;;;;18.92;17.33;;;17.20;99.90;;;;;;6235638;23;20016;-84
2023/09/28 02:02:41;;;;;;;18.10;16.50;;;17.20;99.90;;;;;;6184799;23;20009;-84
2023/09/28 02:05:07;;;;;;;17.17;15.73;;;17.10;99.90;;;;;;6185323;23;20020;-84
2023/09/28 02:07:34;;;;;;;18.52;16.90;;;17.10;99.90;;;;;;6210916;23;20017;-84
2023/09/28 02:10:00;;;;;;;16.58;15.07;;;17.10;99.90;;;;;;6185306;23;20087;-84
2023/09/28 02:12:28;;;;;;;17.92;16.33;;;17.10;99.90;;;;;;6210707;23;20084;-84
2023/09/28 02:14:55;;;;;;;20.52;18.88;;;17.00;99.90;;;;;;6212958;23;20496;-84
2023/09/28 02:17:21;;;;;;;19.48;17.75;;;17.00;99.90;;;;;;6240166;23;20024;-84
2023/09/28 02:19:47;;;;;;;16.45;15.10;;;17.00;99.90;;;;;;6190237;23;20023;-84
2023/09/28 02:22:14;;;;;;;26.83;24.83;;;17.00;99.90;;;;;;6214982;23;20020;-84
2023/09/28 02:24:39;;;;;;;22.98;21.15;;;17.00;99.90;;;;;;6214793;23;20095;-84
2023/09/28 02:27:05;;;;;;;17.15;15.55;;;16.90;99.90;;;;;;6240281;23;20051;-84
2023/09/28 02:29:31;;;;;;;19.52;17.75;;;16.90;99.90;;;;;;6239948;23;20079;-84
2023/09/28 02:31:57;;;;;;;17.42;15.85;;;16.90;99.90;;;;;;6214669;23;20015;-84
2023/09/28 02:34:22;;;;;;;20.90;19.25;;;16.80;99.90;;;;;;6190140;23;20024;-85
2023/09/28 02:36:48;;;;;;;28.60;26.63;;;16.80;99.90;;;;;;6189822;23;20501;-83
2023/09/28 02:39:14;;;;;;;19.85;18.38;;;16.70;99.90;;;;;;6190074;23;20512;-84
2023/09/28 02:41:40;;;;;;;17.88;16.27;;;16.60;99.90;;;;;;6242150;23;20047;-84
2023/09/28 02:44:06;;;;;;;25.92;24.08;;;16.60;99.90;;;;;;6215041;23;20431;-84
2023/09/28 02:46:31;;;;;;;22.85;20.85;;;16.60;99.90;;;;;;6240092;23;20019;-84
2023/09/28 02:48:57;;;;;;;18.48;16.88;;;16.60;99.90;;;;;;6240351;23;20023;-84
2023/09/28 02:51:23;;;;;;;29.48;27.23;;;16.50;99.90;;;;;;6215358;23;20044;-85
2023/09/28 02:53:49;;;;;;;18.50;16.85;;;16.60;99.90;;;;;;6240521;23;20020;-83
2023/09/28 02:56:15;;;;;;;26.35;24.35;;;16.50;99.90;;;;;;6215086;23;20371;-84
2023/09/28 02:58:41;;;;;;;19.75;18.20;;;16.50;99.90;;;;;;6189390;23;20013;-84
2023/09/28 03:01:08;;;;;;;26.00;23.98;;;16.50;99.90;;;;;;6190656;23;20024;-84
2023/09/28 03:03:34;;;;;;;22.15;20.33;;;16.40;99.90;;;;;;6242118;23;20023;-84
2023/09/28 03:06:00;;;;;;;20.58;18.63;;;16.40;99.90;;;;;;6192014;23;20004;-84
2023/09/28 03:08:27;;;;;;;29.10;27.10;;;16.40;99.90;;;;;;6217179;23;20008;-85
2023/09/28 03:10:53;;;;;;;23.67;21.50;;;16.40;99.90;;;;;;6191500;23;20016;-84
2023/09/28 03:13:19;;;;;;;22.50;20.73;;;16.40;99.90;;;;;;6216848;23;20114;-84
2023/09/28 03:15:45;;;;;;;26.77;24.73;;;16.40;99.90;;;;;;6215839;23;20022;-84
2023/09/28 03:18:12;;;;;;;21.25;19.60;;;16.30;99.90;;;;;;6191189;23;20087;-84
2023/09/28 03:20:38;;;;;;;26.92;24.80;;;16.30;99.90;;;;;;6216861;23;20058;-84
2023/09/28 03:23:04;;;;;;;23.95;21.95;;;16.20;99.90;;;;;;6192114;23;20069;-83
2023/09/28 03:25:30;;;;;;;26.42;24.13;;;16.20;99.90;;;;;;6217179;23;20012;-84
2023/09/28 03:27:56;;;;;;;21.85;20.05;;;16.20;99.90;;;;;;6192489;23;20383;-84
2023/09/28 03:30:24;;;;;;;25.23;23.25;;;16.20;99.90;;;;;;6242073;23;20111;-84
2023/09/28 03:32:51;;;;;;;25.70;23.55;;;16.20;99.90;;;;;;6217455;23;20078;-84
2023/09/28 03:35:17;;;;;;;26.67;24.63;;;16.20;99.90;;;;;;6191966;23;20015;-83
2023/09/28 03:37:44;;;;;;;27.75;25.60;;;16.20;99.90;;;;;;6191682;23;20012;-84
2023/09/28 03:40:11;;;;;;;22.85;20.80;;;16.10;99.90;;;;;;6216665;23;20057;-84
2023/09/28 03:42:40;;;;;;;26.10;24.20;;;16.10;99.90;;;;;;6191047;23;20019;-84
2023/09/28 03:45:08;;;;;;;20.45;18.52;;;16.10;99.90;;;;;;6241217;23;20016;-84
2023/09/28 03:47:38;;;;;;;27.92;25.77;;;16.00;99.90;;;;;;6191980;23;20115;-83
2023/09/28 03:50:05;;;;;;;22.52;20.38;;;16.00;99.90;;;;;;6191675;23;20023;-84
2023/09/28 03:52:31;;;;;;;21.80;19.90;;;16.00;99.90;;;;;;6216243;23;20443;-84
2023/09/28 03:54:57;;;;;;;32.42;29.77;;;16.00;99.90;;;;;;6241565;23;20076;-83
2023/09/28 03:57:23;;;;;;;31.98;29.60;;;16.00;99.90;;;;;;6193105;23;20016;-84
2023/09/28 03:59:49;;;;;;;27.48;25.27;;;15.90;99.90;;;;;;6194394;23;20027;-83
2023/09/28 04:02:15;;;;;;;27.70;25.35;;;15.90;99.90;;;;;;6218701;23;20165;-85
2023/09/28 04:04:41;;;;;;;20.30;18.65;;;15.90;99.90;;;;;;6242067;23;20012;-85
2023/09/28 04:07:08;;;;;;;31.23;28.92;;;15.80;99.90;;;;;;6216422;23;20019;-84
2023/09/28 04:09:34;;;;;;;29.90;27.70;;;15.80;99.90;;;;;;6216348;23;20439;-84
2023/09/28 04:12:00;;;;;;;30.45;28.08;;;15.70;99.90;;;;;;6216632;23;20023;-84
2023/09/28 04:14:27;;;;;;;35.47;32.83;;;15.70;99.90;;;;;;6216408;23;20057;-83
2023/09/28 04:16:54;;;;;;;30.42;27.40;;;15.70;99.90;;;;;;6242250;23;20304;-85
2023/09/28 04:19:19;;;;;;;24.33;22.15;;;15.60;99.90;;;;;;6191043;23;20028;-84
2023/09/28 04:21:45;;;;;;;24.38;22.13;;;15.60;99.90;;;;;;6191378;23;20073;-85
2023/09/28 04:24:11;;;;;;;27.73;25.23;;;15.60;99.90;;;;;;6241415;23;20012;-84
2023/09/28 04:26:37;;;;;;;34.45;31.92;;;15.70;99.90;;;;;;6241800;23;20016;-85
2023/09/28 04:29:03;;;;;;;39.40;36.28;;;15.60;99.90;;;;;;6190929;23;20015;-83
2023/09/28 04:31:29;;;;;;;33.30;30.55;;;15.60;99.90;;;;;;6215442;23;20032;-83
2023/09/28 04:33:57;;;;;;;38.50;35.75;;;15.60;99.90;;;;;;6190799;23;20032;-84
2023/09/28 04:36:23;;;;;;;34.63;31.83;;;15.50;99.90;;;;;;6216105;23;20328;-83
2023/09/28 04:38:49;;;;;;;36.17;33.30;;;15.50;99.90;;;;;;6215780;23;20016;-83
2023/09/28 04:41:16;;;;;;;31.80;29.17;;;15.50;99.90;;;;;;6242702;23;20012;-84
2023/09/28 04:43:42;;;;;;;36.05;32.75;;;15.40;99.90;;;;;;6215559;23;20074;-83
2023/09/28 04:46:07;;;;;;;39.53;36.38;;;15.40;99.90;;;;;;6190335;23;20008;-83
2023/09/28 04:48:33;;;;;;;36.22;33.33;;;15.40;99.90;;;;;;6215632;23;20008;-84
2023/09/28 04:50:59;;;;;;;33.22;30.30;;;15.00;99.90;;;;;;6216953;23;20558;-84
2023/09/28 04:53:26;;;;;;;35.25;32.70;;;15.30;99.90;;;;;;6192184;23;20016;-83
2023/09/28 04:55:52;;;;;;;34.20;31.52;;;15.30;99.90;;;;;;6242753;23;20050;-84
2023/09/28 04:58:18;;;;;;;29.83;27.08;;;15.20;99.90;;;;;;6216421;23;20019;-83
2023/09/28 05:00:44;;;;;;;32.40;29.65;;;15.20;99.90;;;;;;6242696;23;20024;-83
2023/09/28 05:03:11;;;;;;;28.83;25.92;;;15.20;99.90;;;;;;6216881;23;20347;-82
2023/09/28 05:05:37;;;;;;;29.70;27.55;;;15.10;99.90;;;;;;6217749;23;20008;-85
2023/09/28 05:08:03;;;;;;;28.33;25.83;;;15.10;99.90;;;;;;6223141;23;20040;-85
2023/09/28 05:10:30;;;;;;;22.92;20.80;;;15.10;99.90;;;;;;6200164;23;20585;-86
2023/09/28 05:12:55;;;;;;;27.30;24.92;;;15.10;99.90;;;;;;6200032;23;20439;-85
2023/09/28 05:15:21;;;;;;;27.27;24.88;;;15.10;99.90;;;;;;6224375;23;20039;-85
2023/09/28 05:17:48;;;;;;;36.30;33.47;;;14.90;99.90;;;;;;6199257;23;20016;-85
2023/09/28 05:20:14;;;;;;;32.72;30.05;;;15.10;99.90;;;;;;6248227;23;20367;-85
2023/09/28 05:22:39;;;;;;;29.20;26.85;;;15.10;99.90;;;;;;6197213;23;20016;-84
2023/09/28 05:25:06;;;;;;;34.20;31.30;;;15.10;99.90;;;;;;6249910;23;20019;-85
2023/09/28 05:27:33;;;;;;;31.98;29.40;;;15.00;99.90;;;;;;6222052;23;20009;-85
2023/09/28 05:29:59;;;;;;;35.13;32.55;;;15.00;99.90;;;;;;6198417;23;20083;-85
2023/09/28 05:32:24;;;;;;;34.78;32.25;;;15.00;99.90;;;;;;6223244;23;20039;-85
2023/09/28 05:34:50;;;;;;;34.28;31.65;;;15.00;99.90;;;;;;6224930;23;20439;-85
2023/09/28 05:37:16;;;;;;;36.75;33.78;;;15.00;99.90;;;;;;6199028;23;20012;-85
2023/09/28 05:39:42;;;;;;;28.08;25.85;;;15.00;99.90;;;;;;6223952;23;20020;-85
2023/09/28 05:42:07;;;;;;;31.33;28.88;;;15.00;99.90;;;;;;6223380;23;20442;-85
2023/09/28 05:44:33;;;;;;;26.50;24.30;;;15.00;99.90;;;;;;6249491;23;20019;-85
2023/09/28 05:46:59;;;;;;;27.30;24.70;;;15.00;99.90;;;;;;6224085;23;20016;-86
2023/09/28 05:49:26;;;;;;;34.45;31.50;;;15.00;99.90;;;;;;6198293;23;20152;-85
2023/09/28 05:51:52;;;;;;;31.00;28.58;;;15.00;99.90;;;;;;6223323;23;20012;-85
2023/09/28 05:54:18;;;;;;;36.30;33.65;;;15.00;99.90;;;;;;6249912;23;20019;-85
2023/09/28 05:56:44;;;;;;;29.25;26.52;;;15.10;99.90;;;;;;6248139;23;20083;-85
2023/09/28 05:59:10;;;;;;;28.17;25.48;;;15.20;99.90;;;;;;6223951;23;20019;-85
2023/09/28 06:01:39;;;;;;;27.13;24.42;;;14.90;99.90;;;;;;6224327;23;20008;-85
2023/09/28 06:04:06;;;;;;;26.80;24.30;;;15.30;99.90;;;;;;6198849;23;20020;-85
2023/09/28 06:06:31;;;;;;;23.42;21.10;;;15.30;99.90;;;;;;6223659;23;20026;-85
2023/09/28 06:08:57;;;;;;;30.38;27.30;;;15.40;99.90;;;;;;6224472;23;20039;-85
2023/09/28 06:11:23;;;;;;;23.73;20.00;;;15.40;99.90;;;;;;6198892;23;20043;-86
2023/09/28 06:13:48;;;;;;;25.63;23.13;;;15.50;99.90;;;;;;6224090;23;20015;-85
2023/09/28 06:16:15;;;;;;;27.27;22.98;;;15.50;99.90;;;;;;6193631;23;20372;-85
2023/09/28 06:18:42;;;;;;;21.17;15.85;;;15.60;99.90;;;;;;6168857;23;20013;-85
2023/09/28 06:21:08;;;;;;;20.05;16.65;;;15.60;99.90;;;;;;6193673;23;20016;-85
2023/09/28 06:23:35;;;;;;;19.55;17.15;;;15.70;99.90;;;;;;6193584;23;20095;-86
2023/09/28 06:26:01;;;;;;;23.30;19.17;;;15.70;99.90;;;;;;6169823;23;20081;-85
2023/09/28 06:28:27;;;;;;;22.92;20.65;;;15.80;99.90;;;;;;6193819;23;20442;-85
2023/09/28 06:30:54;;;;;;;21.38;18.35;;;15.80;99.90;;;;;;6194652;23;20008;-86
2023/09/28 06:33:24;;;;;;;20.65;18.83;;;15.90;99.90;;;;;;6193780;23;20016;-85
2023/09/28 06:35:50;;;;;;;20.77;17.27;;;15.90;99.90;;;;;;6195137;23;20091;-85
2023/09/28 06:38:16;;;;;;;23.67;21.27;;;16.00;99.90;;;;;;6171021;23;20021;-85
2023/09/28 06:40:45;;;;;;;22.45;20.10;;;16.20;99.90;;;;;;6220903;23;20087;-85
2023/09/28 06:43:11;;;;;;;23.63;19.38;;;16.20;99.90;;;;;;6221228;23;20020;-85
2023/09/28 06:45:37;;;;;;;21.33;15.75;;;16.30;99.90;;;;;;6195636;23;20016;-85
2023/09/28 06:48:03;;;;;;;24.77;18.48;;;16.40;99.90;;;;;;6195972;23;20016;-85
2023/09/28 06:50:29;;;;;;;24.70;22.15;;;16.50;99.90;;;;;;6196346;23;20098;-85
2023/09/28 06:52:55;;;;;;;20.80;15.00;;;16.60;99.90;;;;;;6196697;23;20013;-86
2023/09/28 06:55:23;;;;;;;18.60;15.35;;;16.70;99.90;;;;;;6221781;23;20059;-85
2023/09/28 06:57:50;;;;;;;15.95;13.80;;;16.80;99.90;;;;;;6221194;23;20020;-85
2023/09/28 07:00:16;;;;;;;18.45;13.77;;;16.80;99.90;;;;;;6196329;23;20008;-86
2023/09/28 07:02:47;;;;;;;16.80;14.52;;;16.90;99.90;;;;;;6196886;23;20200;-85
2023/09/28 07:05:16;;;;;;;21.60;13.52;;;17.00;99.90;;;;;;6221400;23;20017;-86
2023/09/28 07:07:44;;;;;;;21.30;13.82;;;17.00;99.90;;;;;;6196124;23;20008;-85
2023/09/28 07:10:12;;;;;;;16.48;12.68;;;17.10;99.90;;;;;;6197591;23;20060;-85
2023/09/28 07:12:38;;;;;;;17.55;13.02;;;17.20;99.90;;;;;;6171983;23;20365;-85
2023/09/28 07:15:05;;;;;;;23.40;14.43;;;17.30;99.90;;;;;;6177472;23;20023;-86
2023/09/28 07:17:30;;;;;;;23.52;12.93;;;17.40;99.90;;;;;;6226918;23;20031;-86
2023/09/28 07:19:56;;;;;;;22.48;13.80;;;17.50;99.90;;;;;;6226874;23;20012;-85
2023/09/28 07:22:22;;;;;;;23.83;15.13;;;17.60;99.90;;;;;;6202031;23;20087;-85
2023/09/28 07:24:48;;;;;;;17.50;12.95;;;17.70;99.90;;;;;;6201693;23;20020;-85
2023/09/28 07:27:14;;;;;;;21.65;14.98;;;17.70;99.90;;;;;;6202123;23;20070;-85
2023/09/28 07:29:40;;;;;;;26.83;14.43;;;17.70;99.90;;;;;;6203680;23;20012;-85
2023/09/28 07:32:08;;;;;;;23.90;14.35;;;17.70;99.90;;;;;;6228923;23;20012;-85
2023/09/28 07:34:34;;;;;;;26.08;14.98;;;17.70;99.90;;;;;;6202801;23;20027;-84
2023/09/28 07:37:01;;;;;;;30.52;15.43;;;17.50;99.90;;;;;;6200464;23;20012;-85
2023/09/28 07:39:26;;;;;;;25.90;12.70;;;17.60;99.90;;;;;;6227008;23;20011;-86
2023/09/28 07:41:52;;;;;;;31.15;15.00;;;17.60;99.90;;;;;;6202899;23;20016;-86
2023/09/28 07:44:19;;;;;;;26.25;13.77;;;17.60;99.90;;;;;;6226997;23;20016;-86
2023/09/28 07:46:45;;;;;;;27.60;13.73;;;17.60;99.90;;;;;;6227369;23;20023;-85
2023/09/28 07:49:12;;;;;;;32.25;14.02;;;17.60;99.90;;;;;;6202398;23;20064;-86
2023/09/28 07:51:39;;;;;;;27.13;14.40;;;17.60;99.90;;;;;;6202578;23;20071;-86
2023/09/28 07:54:05;;;;;;;31.67;13.38;;;17.60;99.90;;;;;;6202137;23;20060;-86
2023/09/28 07:56:31;;;;;;;25.25;13.50;;;17.60;99.90;;;;;;6227272;23;20019;-86
2023/09/28 07:58:57;;;;;;;31.52;13.90;;;17.60;99.90;;;;;;6227106;23;20016;-85
2023/09/28 08:01:25;;;;;;;30.95;12.68;;;17.70;99.90;;;;;;6252341;23;20026;-85
2023/09/28 08:03:51;;;;;;;28.63;15.57;;;17.70;99.90;;;;;;6227555;23;20012;-86
2023/09/28 08:06:17;;;;;;;29.92;14.68;;;17.70;99.90;;;;;;6203099;23;20016;-85
2023/09/28 08:08:42;;;;;;;30.42;15.80;;;17.70;99.90;;;;;;6228362;23;20008;-86
2023/09/28 08:11:08;;;;;;;31.10;13.90;;;17.80;99.90;;;;;;6227600;23;20583;-86
2023/09/28 08:13:34;;;;;;;32.65;15.38;;;17.80;99.90;;;;;;6203370;23;20059;-86
2023/09/28 08:16:00;;;;;;;25.98;12.32;;;18.00;99.90;;;;;;6226936;23;20020;-85
2023/09/28 08:18:26;;;;;;;33.20;12.93;;;18.10;99.90;;;;;;6254436;23;20070;-86
2023/09/28 08:20:52;;;;;;;32.88;15.80;;;18.20;99.90;;;;;;6202067;23;20023;-86
2023/09/28 08:23:18;;;;;;;38.03;15.02;;;18.30;99.90;;;;;;6227953;23;20016;-86
2023/09/28 08:25:44;;;;;;;28.50;17.50;;;18.30;99.90;;;;;;6202588;23;20039;-86
2023/09/28 08:28:10;;;;;;;34.78;15.25;;;18.30;99.90;;;;;;6202727;23;20008;-86
2023/09/28 08:30:35;;;;;;;28.88;14.38;;;18.30;99.90;;;;;;6228892;23;20012;-86
2023/09/28 08:33:01;;;;;;;24.15;14.50;;;18.20;99.90;;;;;;6227788;23;20008;-85
2023/09/28 08:35:27;;;;;;;28.90;13.50;;;18.20;99.90;;;;;;6201616;23;20012;-85
2023/09/28 08:37:53;;;;;;;30.23;12.48;;;18.30;99.90;;;;;;6227120;23;20055;-85
2023/09/28 08:40:20;;;;;;;32.60;15.80;;;18.40;99.90;;;;;;6254528;23;20035;-85
2023/09/28 08:42:46;;;;;;;31.20;12.20;;;18.30;99.90;;;;;;6227617;23;20023;-85
2023/09/28 08:45:14;;;;;;;28.05;11.93;;;18.40;99.90;;;;;;6203210;23;20008;-86
2023/09/28 08:47:51;;;;;;;32.17;14.88;;;18.50;99.90;;;;;;6203196;23;20023;-85
2023/09/28 08:50:27;;;;;;;34.42;12.85;;;18.50;99.90;;;;;;6228382;23;20139;-85
2023/09/28 08:52:54;;;;;;;28.95;13.70;;;18.60;99.90;;;;;;6203226;23;20012;-84
2023/09/28 08:55:21;;;;;;;29.30;12.02;;;18.60;99.90;;;;;;6227791;23;20020;-85
2023/09/28 08:57:48;;;;;;;24.65;12.65;;;18.80;99.90;;;;;;6227626;23;20065;-85
2023/09/28 09:00:14;;;;;;;29.83;11.50;;;18.90;99.90;;;;;;6227908;23;20027;-84
2023/09/28 09:02:43;;;;;;;29.83;13.55;;;18.90;99.90;;;;;;6227529;23;20066;-85
2023/09/28 09:05:12;;;;;;;30.05;13.25;;;19.00;99.90;;;;;;6226879;23;20016;-85
2023/09/28 09:07:40;;;;;;;30.60;14.55;;;19.00;99.90;;;;;;6227595;23;20012;-85
2023/09/28 09:10:08;;;;;;;30.73;14.70;;;19.20;99.90;;;;;;6227821;23;20043;-85
2023/09/28 09:12:35;;;;;;;33.35;13.85;;;19.30;99.90;;;;;;6202722;23;20065;-85
2023/09/28 09:15:04;;;;;;;28.40;13.95;;;19.40;99.90;;;;;;6253189;23;20020;-85
2023/09/28 09:17:34;;;;;;;33.17;14.57;;;19.60;99.90;;;;;;6228336;23;20035;-84
2023/09/28 09:20:00;;;;;;;32.80;14.52;;;19.70;99.90;;;;;;6226418;23;20520;-85
2023/09/28 09:22:28;;;;;;;27.15;13.80;;;19.90;99.90;;;;;;6251920;23;20039;-84
2023/09/28 09:25:00;;;;;;;29.58;15.10;;;19.90;99.90;;;;;;6227120;23;20012;-85
2023/09/28 09:27:30;;;;;;;33.45;16.13;;;20.00;99.90;;;;;;6202190;23;20051;-85
2023/09/28 09:29:59;;;;;;;27.67;11.85;;;20.10;99.90;;;;;;6202040;23;20121;-85
2023/09/28 09:32:25;;;;;;;36.10;13.93;;;20.20;99.90;;;;;;6227134;23;20087;-85
2023/09/28 09:34:52;;;;;;;31.30;14.25;;;20.20;99.90;;;;;;6201462;23;20016;-85
2023/09/28 09:37:19;;;;;;;40.05;15.77;;;20.10;99.90;;;;;;6226923;23;20016;-85
2023/09/28 09:39:45;;;;;;;27.08;11.82;;;20.10;99.90;;;;;;6201634;23;20031;-85
2023/09/28 09:42:11;;;;;;;27.77;12.82;;;20.00;99.90;;;;;;6227064;23;20094;-85
2023/09/28 09:44:38;;;;;;;23.52;10.40;;;19.90;99.90;;;;;;6201589;23;20030;-85
2023/09/28 09:47:03;;;;;;;30.27;12.00;;;19.80;99.90;;;;;;6201867;23;20016;-84
2023/09/28 09:49:30;;;;;;;26.08;13.27;;;19.80;99.90;;;;;;6226765;23;20087;-84
2023/09/28 09:51:59;;;;;;;20.30;10.45;;;19.90;99.90;;;;;;6199425;23;20354;-86
2023/09/28 09:54:25;;;;;;;23.48;12.30;;;19.90;99.90;;;;;;6220379;23;20020;-85
2023/09/28 09:56:52;;;;;;;28.60;12.48;;;20.00;99.90;;;;;;6196110;23;20074;-86
2023/09/28 09:59:21;;;;;;;27.17;13.23;;;20.00;99.90;;;;;;6220150;23;20020;-84
2023/09/28 10:01:51;;;;;;;24.23;11.20;;;20.10;99.90;;;;;;6219881;23;20389;-84
2023/09/28 10:04:18;;;;;;;22.77;9.23;;;20.10;99.90;;;;;;6245598;23;20012;-86
2023/09/28 10:06:51;;;;;;;27.95;11.60;;;20.20;99.90;;;;;;6219387;23;20036;-85
2023/09/28 10:09:20;;;;;;;25.67;12.70;;;20.20;99.90;;;;;;6245501;23;20008;-85
2023/09/28 10:11:49;;;;;;;20.80;10.57;;;20.30;99.90;;;;;;6194728;23;20090;-85
2023/09/28 10:14:16;;;;;;;25.20;12.70;;;20.30;99.90;;;;;;6195187;23;20442;-85
2023/09/28 10:16:43;;;;;;;28.05;13.05;;;20.30;99.90;;;;;;6214450;23;20056;-85
2023/09/28 10:19:15;;;;;;;27.67;13.70;;;20.30;99.90;;;;;;6190224;23;20024;-84
2023/09/28 10:21:40;;;;;;;25.45;10.70;;;20.40;99.90;;;;;;6190316;23;20016;-85
2023/09/28 10:24:14;;;;;;;19.83;12.20;;;20.50;99.90;;;;;;6189648;23;20023;-84
2023/09/28 10:26:51;;;;;;;28.17;14.75;;;20.50;99.90;;;;;;6190198;23;20347;-85
2023/09/28 10:29:30;;;;;;;29.85;11.40;;;20.50;99.90;;;;;;6216542;23;20033;-85
2023/09/28 10:31:57;;;;;;;29.38;11.32;;;20.60;99.90;;;;;;6239659;23;20013;-85
2023/09/28 10:34:24;;;;;;;20.42;10.82;;;20.60;99.90;;;;;;6190129;23;20024;-84
2023/09/28 10:37:10;;;;;;;29.55;11.70;;;20.50;99.90;;;;;;6215080;23;20066;-85
2023/09/28 10:39:37;;;;;;;32.78;14.27;;;20.40;99.90;;;;;;6189807;23;20534;-85
2023/09/28 10:42:15;;;;;;;22.85;10.88;;;20.60;99.90;;;;;;6189117;23;20339;-85
2023/09/28 10:44:49;;;;;;;24.23;11.52;;;20.60;99.90;;;;;;6189277;23;20093;-84
2023/09/28 10:47:15;;;;;;;17.15;8.98;;;20.60;99.90;;;;;;6214658;23;20012;-85
2023/09/28 10:49:40;;;;;;;23.02;9.20;;;20.60;99.90;;;;;;6190839;23;20008;-85
2023/09/28 10:52:09;;;;;;;21.98;10.13;;;20.60;99.90;;;;;;6215217;23;20458;-85
2023/09/28 10:54:36;;;;;;;24.38;12.15;;;20.50;99.90;;;;;;6215256;23;20017;-85
2023/09/28 10:57:02;;;;;;;23.30;11.60;;;20.50;99.90;;;;;;6214498;23;20027;-85
2023/09/28 10:59:29;;;;;;;28.58;12.77;;;20.40;99.90;;;;;;6189954;23;20051;-85
2023/09/28 11:01:54;;;;;;;28.02;14.10;;;20.50;99.90;;;;;;6215860;23;20019;-86
2023/09/28 11:04:20;;;;;;;27.77;12.27;;;20.40;99.90;;;;;;6190016;23;20087;-85
2023/09/28 11:06:46;;;;;;;28.50;11.93;;;20.40;99.90;;;;;;6214070;23;20012;-84
2023/09/28 11:09:14;;;;;;;30.20;10.07;;;20.40;99.90;;;;;;6240239;23;20183;-85
2023/09/28 11:11:43;;;;;;;21.58;9.43;;;20.40;99.90;;;;;;6190458;23;20024;-85
2023/09/28 11:14:12;;;;;;;28.27;11.15;;;20.50;99.90;;;;;;6189044;23;20023;-86
2023/09/28 11:16:42;;;;;;;29.27;11.60;;;20.40;99.90;;;;;;6219770;23;20016;-85
2023/09/28 11:19:11;;;;;;;28.35;11.55;;;20.40;99.90;;;;;;6220428;23;20070;-85
2023/09/28 11:21:37;;;;;;;33.20;14.88;;;20.30;99.90;;;;;;6220220;23;20012;-85
2023/09/28 11:24:03;;;;;;;26.58;13.25;;;20.40;99.90;;;;;;6222116;23;20012;-85
2023/09/28 11:26:30;;;;;;;23.20;10.43;;;20.40;99.90;;;;;;6196556;23;20031;-85
2023/09/28 11:28:58;;;;;;;24.48;9.02;;;20.40;99.90;;;;;;6221348;23;20019;-85
2023/09/28 11:31:25;;;;;;;27.38;10.07;;;20.50;99.90;;;;;;6246988;23;20008;-85
2023/09/28 11:33:50;;;;;;;26.73;10.48;;;20.50;99.90;;;;;;6222454;23;20023;-86
2023/09/28 11:36:21;;;;;;;25.55;9.95;;;20.60;99.90;;;;;;6221476;23;20016;-86
2023/09/28 11:38:48;;;;;;;29.38;12.15;;;20.70;99.90;;;;;;6221512;23;20051;-85
2023/09/28 11:41:15;;;;;;;25.00;10.52;;;20.80;99.90;;;;;;6244859;23;20016;-85
2023/09/28 11:43:47;;;;;;;26.40;10.15;;;20.80;99.90;;;;;;6242332;23;20058;-84
2023/09/28 11:46:20;;;;;;;27.70;8.38;;;20.80;99.90;;;;;;6217298;23;20047;-85
2023/09/28 11:48:45;;;;;;;25.00;11.25;;;20.90;99.90;;;;;;6242807;23;20091;-85
2023/09/28 11:51:15;;;;;;;25.55;10.68;;;20.90;99.90;;;;;;6217543;23;20051;-86
2023/09/28 11:53:42;;;;;;;22.48;11.30;;;20.90;99.90;;;;;;6217156;23;20016;-85
2023/09/28 11:56:10;;;;;;;23.67;10.63;;;20.80;99.90;;;;;;6216614;23;20328;-84
2023/09/28 11:58:35;;;;;;;29.85;11.00;;;20.80;99.90;;;;;;6242613;23;20023;-85
2023/09/28 12:01:03;;;;;;;24.23;11.23;;;20.90;99.90;;;;;;6216317;23;20016;-84
2023/09/28 12:03:28;;;;;;;29.38;11.30;;;21.00;99.90;;;;;;6242204;23;20028;-85
2023/09/28 12:05:55;;;;;;;28.98;12.52;;;21.00;99.90;;;;;;6242238;23;20020;-85
2023/09/28 12:08:21;;;;;;;23.50;11.27;;;21.00;99.90;;;;;;6241950;23;20013;-85
2023/09/28 12:10:47;;;;;;;27.48;12.18;;;21.00;99.90;;;;;;6216877;23;20055;-86
2023/09/28 12:13:13;;;;;;;22.25;10.13;;;21.10;99.90;;;;;;6215244;23;20102;-84
2023/09/28 12:15:39;;;;;;;21.48;10.20;;;21.20;99.90;;;;;;6211061;23;20028;-85
2023/09/28 12:18:04;;;;;;;23.52;11.38;;;21.10;99.90;;;;;;6185962;23;20506;-84
2023/09/28 12:20:31;;;;;;;21.58;10.75;;;21.30;99.90;;;;;;6211558;23;20066;-84
2023/09/28 12:22:58;;;;;;;23.98;9.32;;;21.30;99.90;;;;;;6186690;23;20395;-85
2023/09/28 12:25:23;;;;;;;18.95;7.50;;;21.40;99.90;;;;;;6210697;23;20021;-85